createdAt,value
2023-01-02T00:01:45.104Z,1.07
2023-01-02T00:04:47.895Z,0.80
2023-01-02T00:07:50.401Z,1.23
2023-01-02T00:10:53.273Z,1.30
2023-01-02T00:13:57.405Z,1.15
2023-01-02T00:16:59.954Z,2.10
2023-01-02T00:20:02.781Z,2.37
2023-01-02T00:23:05.469Z,2.20
2023-01-02T00:26:08.512Z,2.50
2023-01-02T00:29:14.341Z,2.28
2023-01-02T00:32:17.052Z,2.70
2023-01-02T00:35:19.842Z,2.95
2023-01-02T00:38:22.648Z,2.20
2023-01-02T00:41:25.317Z,3.10
2023-01-02T00:44:29.253Z,3.33
2023-01-02T00:47:31.915Z,3.23
2023-01-02T00:50:34.482Z,3.70
2023-01-02T00:53:37.575Z,3.17
2023-01-02T00:56:40.301Z,2.38
2023-01-02T00:59:44.221Z,3.22
2023-01-02T01:02:46.830Z,3.43
2023-01-02T01:05:49.574Z,3.53
2023-01-02T01:08:52.230Z,3.65
2023-01-02T01:11:54.815Z,3.53
2023-01-02T01:14:59.224Z,3.60
2023-01-02T01:18:01.872Z,3.60
2023-01-02T01:21:07.934Z,4.10
2023-01-02T01:24:10.598Z,3.43
2023-01-02T01:27:13.157Z,3.60
2023-01-02T01:30:17.113Z,3.13
2023-01-02T01:33:19.742Z,4.13
2023-01-02T01:36:23.859Z,3.67
2023-01-02T01:39:26.472Z,3.33
2023-01-02T01:42:33.258Z,3.33
2023-01-02T01:45:37.272Z,3.60
2023-01-02T01:48:39.954Z,3.43
2023-01-02T01:51:46.129Z,3.38
2023-01-02T01:54:53.417Z,3.03
2023-01-02T01:57:58.075Z,3.40
2023-01-02T02:01:02.729Z,3.37
2023-01-02T02:04:05.664Z,2.80
2023-01-02T02:07:08.418Z,3.13
2023-01-02T02:10:12.745Z,3.90
2023-01-02T02:13:15.473Z,2.90
2023-01-02T02:16:29.107Z,3.15
2023-01-02T02:20:00.966Z,2.92
2023-01-02T02:23:33.763Z,3.00
2023-01-02T02:27:00.805Z,3.67
2023-01-02T02:30:12.361Z,3.27
2023-01-02T02:33:24.953Z,2.87
2023-01-02T02:36:30.876Z,3.13
2023-01-02T02:39:39.240Z,2.80
2023-01-02T02:42:46.677Z,2.90
2023-01-02T02:45:56.473Z,2.90
2023-01-02T02:49:05.341Z,3.20
2023-01-02T02:52:09.744Z,3.47
2023-01-02T02:55:15.566Z,3.20
2023-01-02T02:58:20.235Z,3.10
2023-01-02T03:01:30.174Z,2.60
2023-01-02T03:04:33.831Z,1.70
2023-01-02T03:07:39.381Z,1.67
2023-01-02T03:10:48.175Z,1.57
2023-01-02T03:14:00.105Z,2.00
2023-01-02T03:17:05.331Z,1.70
2023-01-02T03:20:10.188Z,0.93
2023-01-02T03:23:16.383Z,1.27
2023-01-02T03:26:21.707Z,0.87
2023-01-02T03:29:29.234Z,1.03
2023-01-02T03:32:35.143Z,1.20
2023-01-02T03:35:41.616Z,0.90
2023-01-02T03:38:46.216Z,1.07
2023-01-02T03:41:53.320Z,1.00
2023-01-02T03:44:59.961Z,0.80
2023-01-02T03:48:09.713Z,0.73
2023-01-02T03:51:12.304Z,0.80
2023-01-02T03:54:15.539Z,0.50
2023-01-02T03:57:24.383Z,1.42
2023-01-02T04:00:31.571Z,0.90
2023-01-02T04:03:37.858Z,1.03
2023-01-02T04:06:43.349Z,0.50
2023-01-02T04:09:46.713Z,1.57
2023-01-02T04:12:52.800Z,0.60
2023-01-02T04:15:56.243Z,0.77
2023-01-02T04:19:03.526Z,0.80
2023-01-02T04:22:09.266Z,0.80
2023-01-02T04:25:14.084Z,0.93
2023-01-02T04:28:19.156Z,1.17
2023-01-02T04:31:24.393Z,0.77
2023-01-02T04:34:29.728Z,0.80
2023-01-02T04:37:35.896Z,0.83
2023-01-02T04:40:38.842Z,1.20
2023-01-02T04:43:41.455Z,1.83
2023-01-02T04:46:44.137Z,1.83
2023-01-02T04:49:48.241Z,2.05
2023-01-02T04:52:50.807Z,1.77
2023-01-02T04:55:56.490Z,2.17
2023-01-02T04:58:59.032Z,1.93
2023-01-02T05:02:01.870Z,2.17
2023-01-02T05:05:07.628Z,2.15
2023-01-02T05:08:15.842Z,2.60
2023-01-02T05:11:20.683Z,2.30
2023-01-02T05:14:23.464Z,2.10
2023-01-02T05:17:25.964Z,2.15
2023-01-02T05:20:29.851Z,2.70
2023-01-02T05:23:50.012Z,2.60
2023-01-02T05:26:52.716Z,5.47
2023-01-02T05:29:55.404Z,4.35
2023-01-02T05:32:58.067Z,3.70
2023-01-02T05:36:02.476Z,3.30
2023-01-02T05:39:08.598Z,3.57
2023-01-02T05:42:11.183Z,3.33
2023-01-02T05:45:13.643Z,3.33
2023-01-02T05:48:16.273Z,2.73
2023-01-02T05:51:20.652Z,3.23
2023-01-02T05:54:23.306Z,3.00
2023-01-02T05:57:26.031Z,4.13
2023-01-02T06:00:28.679Z,3.92
2023-01-02T06:03:31.310Z,3.77
2023-01-02T06:06:36.645Z,3.23
2023-01-02T06:09:39.318Z,2.90
2023-01-02T06:12:41.869Z,3.60
2023-01-02T06:18:48.140Z,3.63
2023-01-02T06:21:52.115Z,3.47
2023-01-02T06:24:54.883Z,3.43
2023-01-02T06:27:57.631Z,3.78
2023-01-02T06:31:01.376Z,3.00
2023-01-02T06:37:10.321Z,2.83
2023-01-02T06:40:13.349Z,3.37
2023-01-02T06:43:15.987Z,3.00
2023-01-02T06:46:20.537Z,2.77
2023-01-02T06:49:23.329Z,2.90
2023-01-02T06:52:28.586Z,3.22
2023-01-02T06:55:31.118Z,3.03
2023-01-02T06:58:35.612Z,2.83
2023-01-02T07:01:38.701Z,2.80
2023-01-02T07:04:41.539Z,3.03
2023-01-02T07:07:45.510Z,2.70
2023-01-02T07:10:52.884Z,2.67
2023-01-02T07:13:56.002Z,3.00
2023-01-02T07:16:58.620Z,3.33
2023-01-02T07:20:02.541Z,3.43
2023-01-02T07:23:06.520Z,3.30
2023-01-02T07:26:09.335Z,3.27
2023-01-02T07:29:12.166Z,3.22
2023-01-02T07:32:14.753Z,4.90
2023-01-02T07:35:17.512Z,4.10
2023-01-02T07:38:21.438Z,4.90
2023-01-02T07:41:25.615Z,3.97
2023-01-02T07:44:28.162Z,3.83
2023-01-02T07:47:30.722Z,4.40
2023-01-02T07:50:33.312Z,3.83
2023-01-02T07:53:38.248Z,3.70
2023-01-02T07:56:40.916Z,3.77
2023-01-02T07:59:44.941Z,4.10
2023-01-02T08:02:49.885Z,4.37
2023-01-02T08:05:52.774Z,4.00
2023-01-02T08:08:56.688Z,3.40
2023-01-02T08:11:59.412Z,4.53
2023-01-02T08:15:02.016Z,3.85
2023-01-02T08:18:04.673Z,4.40
2023-01-02T08:21:08.718Z,3.40
2023-01-02T08:24:12.791Z,3.50
2023-01-02T08:27:15.451Z,4.13
2023-01-02T08:30:18.244Z,3.33
2023-01-02T08:33:21.037Z,4.82
2023-01-02T08:36:23.592Z,4.57
2023-01-02T08:39:27.631Z,3.70
2023-01-02T08:42:30.249Z,4.17
2023-01-02T08:45:32.951Z,4.40
2023-01-02T08:48:36.225Z,4.90
2023-01-02T08:51:39.155Z,5.85
2023-01-02T08:54:43.058Z,4.47
2023-01-02T08:57:45.614Z,5.03
2023-01-02T09:00:48.296Z,4.60
2023-01-02T09:03:51.588Z,4.10
2023-01-02T09:06:54.101Z,4.32
2023-01-02T09:09:58.158Z,4.60
2023-01-02T09:13:00.847Z,4.47
2023-01-02T09:16:03.499Z,3.65
2023-01-02T09:19:06.062Z,4.53
2023-01-02T09:22:09.390Z,4.00
2023-01-02T09:25:14.698Z,3.83
2023-01-02T09:28:20.182Z,4.20
2023-01-02T09:31:23.244Z,4.40
2023-01-02T09:34:25.841Z,4.70
2023-01-02T09:37:28.902Z,3.93
2023-01-02T09:40:33.048Z,4.22
2023-01-02T09:43:38.225Z,4.00
2023-01-02T09:46:45.515Z,4.70
2023-01-02T09:49:49.429Z,3.97
2023-01-02T09:52:56.371Z,2.23
2023-01-02T09:56:05.612Z,4.50
2023-01-02T09:59:13.989Z,1.70
2023-01-02T10:02:27.281Z,1.33
2023-01-02T10:06:00.575Z,1.75
2023-01-02T10:09:08.402Z,1.10
2023-01-02T10:12:16.857Z,1.67
2023-01-02T10:15:23.704Z,1.27
2023-01-02T10:18:31.457Z,1.13
2023-01-02T10:21:35.981Z,1.03
2023-01-02T10:24:42.857Z,1.53
2023-01-02T10:27:50.107Z,1.17
2023-01-02T10:30:56.243Z,1.40
2023-01-02T10:34:00.224Z,1.57
2023-01-02T10:37:08.006Z,1.50
2023-01-02T10:40:11.485Z,1.17
2023-01-02T10:43:16.100Z,1.40
2023-01-02T10:46:18.787Z,1.10
2023-01-02T10:49:21.998Z,1.20
2023-01-02T10:52:27.581Z,1.52
2023-01-02T10:55:31.901Z,2.40
2023-01-02T10:58:36.515Z,2.47
2023-01-02T11:01:50.612Z,2.90
2023-01-02T11:04:53.354Z,2.60
2023-01-02T11:07:56.869Z,3.53
2023-01-02T11:11:01.755Z,3.33
2023-01-02T11:14:09.012Z,2.83
2023-01-02T11:17:15.957Z,1.87
2023-01-02T11:20:29.869Z,1.53
2023-01-02T11:23:36.877Z,1.63
2023-01-02T11:26:40.649Z,1.53
2023-01-02T11:29:47.006Z,2.20
2023-01-02T11:33:02.485Z,1.70
2023-01-02T11:36:16.835Z,1.83
2023-01-02T11:39:22.830Z,1.40
2023-01-02T11:42:47.004Z,1.93
2023-01-02T11:45:51.333Z,1.50
2023-01-02T11:48:57.484Z,2.13
2023-01-02T11:52:03.242Z,1.17
2023-01-02T11:55:16.397Z,1.27
2023-01-02T11:58:24.763Z,1.65
2023-01-02T12:01:34.024Z,1.30
2023-01-02T12:04:36.728Z,2.13
2023-01-02T12:07:43.481Z,1.10
2023-01-02T12:10:52.845Z,2.60
2023-01-02T12:14:02.633Z,2.03
2023-01-02T12:17:12.043Z,2.17
2023-01-02T12:20:24.076Z,1.77
2023-01-02T12:23:51.656Z,2.13
2023-01-02T12:27:00.015Z,2.20
2023-01-02T12:30:10.907Z,1.57
2023-01-02T12:33:36.271Z,1.13
2023-01-02T12:36:50.091Z,1.90
2023-01-02T12:40:28.062Z,1.83
2023-01-02T12:43:41.068Z,1.60
2023-01-02T12:47:11.644Z,2.13
2023-01-02T12:50:28.993Z,1.50
2023-01-02T12:54:19.889Z,2.47
2023-01-02T12:57:21.824Z,2.40
2023-01-02T13:00:49.601Z,1.45
2023-01-02T13:03:58.246Z,2.00
2023-01-02T13:07:05.687Z,1.80
2023-01-02T13:10:14.666Z,1.70
2023-01-02T13:13:17.262Z,1.57
2023-01-02T13:16:25.205Z,1.83
2023-01-02T13:19:35.273Z,1.60
2023-01-02T13:22:44.079Z,1.80
2023-01-02T13:25:48.371Z,1.60
2023-01-02T13:28:55.093Z,1.63
2023-01-02T13:31:59.235Z,1.73
2023-01-02T13:35:03.391Z,1.13
2023-01-02T13:38:08.650Z,1.63
2023-01-02T13:41:15.252Z,2.13
2023-01-02T13:44:17.990Z,1.43
2023-01-02T13:47:30.007Z,2.25
2023-01-02T13:50:37.862Z,1.80
2023-01-02T13:53:43.139Z,2.40
2023-01-02T13:57:16.571Z,1.50
2023-01-02T14:00:35.269Z,2.50
2023-01-02T14:03:38.698Z,2.33
2023-01-02T14:06:46.159Z,1.67
2023-01-02T14:10:15.127Z,1.87
2023-01-02T14:13:25.160Z,2.23
2023-01-02T14:16:44.671Z,1.80
2023-01-02T14:19:47.465Z,1.90
2023-01-02T14:22:51.917Z,2.10
2023-01-02T14:25:56.435Z,1.67
2023-01-02T14:29:00.944Z,1.97
2023-01-02T14:32:07.034Z,1.30
2023-01-02T14:35:25.142Z,2.60
2023-01-02T14:38:30.033Z,2.40
2023-01-02T14:42:31.784Z,2.03
2023-01-02T14:45:36.384Z,2.30
2023-01-02T14:48:43.959Z,1.90
2023-01-02T14:51:48.839Z,1.87
2023-01-02T14:54:54.618Z,1.37
2023-01-02T14:57:57.749Z,2.40
2023-01-02T15:01:04.729Z,2.50
2023-01-02T15:04:17.124Z,2.90
2023-01-02T15:07:25.527Z,1.93
2023-01-02T15:10:28.432Z,2.00
2023-01-02T15:13:33.190Z,1.90
2023-01-02T15:17:00.626Z,1.97
2023-01-02T15:20:03.379Z,2.33
2023-01-02T15:23:06.079Z,1.52
2023-01-02T15:26:33.498Z,1.58
2023-01-02T15:29:37.297Z,2.17
2023-01-02T15:32:48.718Z,2.43
2023-01-02T15:35:55.586Z,1.93
2023-01-02T15:39:04.635Z,2.10
2023-01-02T15:42:29.025Z,2.60
2023-01-02T15:45:31.163Z,1.30
2023-01-02T15:48:35.388Z,1.60
2023-01-02T15:51:42.002Z,1.60
2023-01-02T15:54:45.897Z,1.23
2023-01-02T15:57:53.422Z,3.23
2023-01-02T16:01:14.253Z,1.63
2023-01-02T16:04:26.814Z,1.77
2023-01-02T16:07:29.666Z,2.63
2023-01-02T16:10:32.300Z,1.65
2023-01-02T16:13:54.720Z,1.95
2023-01-02T16:17:02.315Z,1.97
2023-01-02T16:20:11.615Z,2.00
2023-01-02T16:23:17.987Z,1.60
2023-01-02T16:26:21.048Z,1.57
2023-01-02T16:29:24.133Z,1.58
2023-01-02T16:32:29.090Z,2.50
2023-01-02T16:35:34.736Z,1.80
2023-01-02T16:38:47.386Z,1.70
2023-01-02T16:42:11.994Z,1.67
2023-01-02T16:45:16.886Z,1.30
2023-01-02T16:48:21.367Z,1.53
2023-01-02T16:51:25.433Z,1.57
2023-01-02T16:54:28.253Z,1.43
2023-01-02T16:57:31.015Z,1.95
2023-01-02T17:00:39.760Z,2.10
2023-01-02T17:03:46.304Z,1.40
2023-01-02T17:06:50.564Z,1.80
2023-01-02T17:09:53.084Z,2.70
2023-01-02T17:12:55.717Z,1.87
2023-01-02T17:15:58.678Z,1.67
2023-01-02T17:19:01.410Z,1.38
2023-01-02T17:22:05.614Z,1.88
2023-01-02T17:25:10.510Z,2.63
2023-01-02T17:28:13.529Z,2.63
2023-01-02T17:31:19.885Z,2.25
2023-01-02T17:34:25.162Z,2.47
2023-01-02T17:37:29.174Z,1.47
2023-01-02T17:40:32.045Z,1.90
2023-01-02T17:43:34.875Z,2.85
2023-01-02T17:50:00.082Z,1.97
2023-01-02T17:53:04.046Z,2.13
2023-01-02T17:56:21.251Z,1.93
2023-01-02T17:59:25.220Z,1.70
2023-01-02T18:02:28.297Z,1.42
2023-01-02T18:05:31.955Z,1.95
2023-01-02T18:11:40.491Z,1.83
2023-01-02T18:14:45.552Z,2.05
2023-01-02T18:17:48.812Z,2.17
2023-01-02T18:20:51.586Z,1.70
2023-01-02T18:23:58.720Z,1.90
2023-01-02T18:27:11.319Z,1.60
2023-01-02T18:30:18.107Z,1.53
2023-01-02T18:33:21.193Z,1.30
2023-01-02T18:36:25.263Z,1.05
2023-01-02T18:39:34.890Z,1.50
2023-01-02T18:42:37.784Z,1.70
2023-01-02T18:45:40.771Z,0.50
2023-01-02T18:48:43.632Z,1.03
2023-01-02T18:51:46.868Z,0.50
2023-01-02T18:54:55.255Z,0.52
2023-01-02T18:58:01.014Z,0.80
2023-01-02T19:01:16.153Z,0.63
2023-01-02T19:04:27.893Z,1.00
2023-01-02T19:07:33.549Z,0.70
2023-01-02T19:10:39.793Z,0.60
2023-01-02T19:13:41.457Z,0.50
2023-01-02T19:16:44.506Z,0.33
2023-01-02T19:19:47.419Z,0.60
2023-01-02T19:22:50.345Z,0.40
2023-01-02T19:25:55.078Z,0.57
2023-01-02T19:29:00.626Z,0.40
2023-01-02T19:32:05.482Z,0.23
2023-01-02T19:35:51.621Z,0.57
2023-01-02T19:38:54.154Z,0.60
2023-01-02T19:42:15.743Z,0.40
2023-01-02T19:45:19.520Z,0.63
2023-01-02T19:48:22.149Z,0.60
2023-01-02T19:51:25.209Z,0.50
2023-01-02T19:54:27.876Z,0.57
2023-01-02T19:57:31.951Z,0.30
2023-01-02T20:00:34.600Z,0.47
2023-01-02T20:03:37.181Z,0.53
2023-01-02T20:06:39.922Z,0.80
2023-01-02T20:09:42.581Z,0.37
2023-01-02T20:12:46.652Z,0.40
2023-01-02T20:15:49.641Z,0.47
2023-01-02T20:18:52.336Z,0.30
2023-01-02T20:21:55.108Z,0.40
2023-01-02T20:24:57.852Z,0.50
2023-01-02T20:28:03.292Z,0.40
2023-01-02T20:31:06.491Z,0.50
2023-01-02T20:34:09.344Z,0.43
2023-01-02T20:37:12.136Z,0.50
2023-01-02T20:40:14.768Z,0.47
2023-01-02T20:43:18.731Z,0.57
2023-01-02T20:46:21.440Z,0.27
2023-01-02T20:49:25.454Z,0.50
2023-01-02T20:52:28.071Z,0.80
2023-01-02T20:55:30.787Z,0.63
2023-01-02T20:58:35.688Z,0.43
2023-01-02T21:01:38.561Z,0.80
2023-01-02T21:04:41.337Z,0.40
2023-01-02T21:07:44.123Z,0.60
2023-01-02T21:10:46.649Z,0.70
2023-01-02T21:13:50.523Z,0.70
2023-01-02T21:16:54.644Z,0.80
2023-01-02T21:19:57.370Z,0.70
2023-01-02T21:22:59.992Z,1.50
2023-01-02T21:26:02.643Z,0.93
2023-01-02T21:29:06.653Z,0.50
2023-01-02T21:32:09.251Z,0.90
2023-01-02T21:35:11.849Z,0.87
2023-01-02T21:38:14.770Z,0.70
2023-01-02T21:41:34.923Z,0.70
2023-01-02T21:44:39.015Z,0.93
2023-01-02T21:47:41.715Z,1.70
2023-01-02T21:50:44.283Z,0.67
2023-01-02T21:53:47.010Z,0.90
2023-01-02T21:56:49.741Z,0.88
2023-01-02T21:59:53.680Z,0.70
2023-01-02T22:02:56.584Z,0.80
2023-01-02T22:05:59.328Z,0.85
2023-01-02T22:09:02.070Z,0.73
2023-01-02T22:12:07.081Z,0.80
2023-01-02T22:15:12.833Z,0.60
2023-01-02T22:18:15.479Z,0.60
2023-01-02T22:21:18.210Z,0.73
2023-01-02T22:24:23.469Z,0.60
2023-01-02T22:27:26.131Z,0.60
2023-01-02T22:30:34.491Z,0.70
2023-01-02T22:33:38.217Z,0.70
2023-01-02T22:36:40.789Z,0.73
2023-01-02T22:39:43.802Z,0.50
2023-01-02T22:43:01.685Z,0.50
2023-01-02T22:46:10.221Z,0.43
2023-01-02T22:49:14.773Z,0.70
2023-01-02T22:52:17.439Z,0.57
2023-01-02T22:55:21.957Z,0.60
2023-01-02T22:58:25.303Z,0.80
2023-01-02T23:01:33.004Z,0.55
2023-01-02T23:04:36.185Z,0.60
2023-01-02T23:07:38.819Z,0.50
2023-01-02T23:10:44.789Z,0.60
2023-01-02T23:13:54.549Z,0.90
2023-01-02T23:17:18.349Z,0.63
2023-01-02T23:20:20.924Z,0.40
2023-01-02T23:23:23.415Z,0.40
2023-01-02T23:26:29.991Z,0.60
2023-01-02T23:29:33.215Z,0.60
2023-01-02T23:32:37.233Z,0.35
2023-01-02T23:35:39.766Z,0.43
2023-01-02T23:38:43.168Z,0.80
2023-01-02T23:41:46.067Z,0.60
2023-01-02T23:44:48.779Z,0.50
2023-01-02T23:47:52.769Z,0.60
2023-01-02T23:50:58.686Z,0.53
2023-01-02T23:54:01.825Z,0.57
2023-01-02T23:57:04.608Z,0.60
